createdAt,value
2022-10-23T00:01:59.495Z,99693.56
2022-10-23T00:04:29.112Z,99685.34
2022-10-23T00:07:02.485Z,99689.69
2022-10-23T00:09:32.105Z,99690.47
2022-10-23T00:12:01.093Z,99690.34
2022-10-23T00:14:30.259Z,99676.13
2022-10-23T00:16:59.242Z,99674.22
2022-10-23T00:19:28.531Z,99679.50
2022-10-23T00:21:57.473Z,99681.41
2022-10-23T00:24:27.951Z,99669.50
2022-10-23T00:26:56.938Z,99661.47
2022-10-23T00:29:28.206Z,99659.75
2022-10-23T00:31:57.261Z,99651.22
2022-10-23T00:34:26.304Z,99654.53
2022-10-23T00:36:55.654Z,99650.53
2022-10-23T00:39:24.664Z,99642.19
2022-10-23T00:41:56.316Z,99644.69
2022-10-23T00:45:02.509Z,99639.34
2022-10-23T00:47:32.415Z,99639.91
2022-10-23T00:50:02.133Z,99626.53
2022-10-23T00:52:33.738Z,99632.03
2022-10-23T00:55:03.448Z,99629.00
2022-10-23T00:57:42.428Z,99628.66
2022-10-23T01:00:19.010Z,99619.34
2022-10-23T01:02:50.175Z,99623.53
2022-10-23T01:05:24.559Z,99621.38
2022-10-23T01:07:58.138Z,99617.09
2022-10-23T01:10:35.778Z,99617.09
2022-10-23T01:13:15.128Z,99612.38
2022-10-23T01:15:50.644Z,99615.88
2022-10-23T01:18:22.756Z,99614.19
2022-10-23T01:20:58.490Z,99618.34
2022-10-23T01:23:49.082Z,99607.97
2022-10-23T01:26:40.070Z,99607.06
2022-10-23T01:29:23.626Z,99612.94
2022-10-23T01:31:59.544Z,99605.78
2022-10-23T01:34:34.172Z,99601.38
2022-10-23T01:37:06.284Z,99607.78
2022-10-23T01:39:40.241Z,99610.94
2022-10-23T01:42:13.409Z,99604.09
2022-10-23T01:44:47.808Z,99603.44
2022-10-23T01:50:01.449Z,99593.75
2022-10-23T01:52:30.942Z,99591.59
2022-10-23T01:55:02.831Z,99589.63
2022-10-23T01:57:39.702Z,99586.63
2022-10-23T02:00:14.881Z,99588.38
2022-10-23T02:02:55.211Z,99587.03
2022-10-23T02:05:32.345Z,99584.78
2022-10-23T02:08:03.924Z,99582.81
2022-10-23T02:10:36.689Z,99578.13
2022-10-23T02:13:10.542Z,99583.28
2022-10-23T02:15:49.545Z,99580.22
2022-10-23T02:18:36.209Z,99582.06
2022-10-23T02:21:11.073Z,99580.38
2022-10-23T02:23:46.215Z,99578.38
2022-10-23T02:26:20.779Z,99576.41
2022-10-23T02:28:55.635Z,99578.09
2022-10-23T02:31:26.305Z,99582.03
2022-10-23T02:33:55.806Z,99581.22
2022-10-23T02:36:25.135Z,99584.84
2022-10-23T02:38:54.671Z,99584.03
2022-10-23T02:41:40.635Z,99574.56
2022-10-23T02:44:37.587Z,99582.97
2022-10-23T02:47:19.632Z,99575.66
2022-10-23T02:49:58.830Z,99575.44
2022-10-23T02:52:35.303Z,99577.19
2022-10-23T02:55:18.967Z,99578.28
2022-10-23T02:57:56.415Z,99566.38
2022-10-23T03:00:30.622Z,99563.72
2022-10-23T03:03:07.837Z,99563.91
2022-10-23T03:05:40.703Z,99556.38
2022-10-23T03:08:10.889Z,99554.81
2022-10-23T03:10:40.055Z,99558.66
2022-10-23T03:13:10.647Z,99557.47
2022-10-23T03:15:54.815Z,99550.97
2022-10-23T03:18:25.372Z,99552.91
2022-10-23T03:20:54.466Z,99552.56
2022-10-23T03:23:24.478Z,99552.31
2022-10-23T03:25:54.469Z,99548.28
2022-10-23T03:28:35.560Z,99543.63
2022-10-23T03:31:05.222Z,99547.28
2022-10-23T03:33:35.699Z,99546.16
2022-10-23T03:36:13.085Z,99544.53
2022-10-23T03:38:42.612Z,99543.63
2022-10-23T03:41:13.143Z,99547.06
2022-10-23T03:43:42.191Z,99543.69
2022-10-23T03:46:13.042Z,99538.69
2022-10-23T03:48:43.644Z,99535.66
2022-10-23T03:51:13.148Z,99533.91
2022-10-23T03:53:43.846Z,99539.63
2022-10-23T03:56:12.908Z,99537.25
2022-10-23T03:58:42.073Z,99532.03
2022-10-23T04:01:11.202Z,99530.56
2022-10-23T04:03:40.374Z,99523.94
2022-10-23T04:06:11.219Z,99527.44
2022-10-23T04:08:41.376Z,99530.44
2022-10-23T04:11:16.231Z,99524.59
2022-10-23T04:13:47.932Z,99523.53
2022-10-23T04:16:17.167Z,99525.50
2022-10-23T04:18:48.203Z,99522.53
2022-10-23T04:21:18.929Z,99516.09
2022-10-23T04:23:47.906Z,99523.50
2022-10-23T04:26:19.876Z,99520.13
2022-10-23T04:28:48.926Z,99514.38
2022-10-23T04:31:18.304Z,99510.81
2022-10-23T04:33:48.599Z,99509.78
2022-10-23T04:36:32.455Z,99513.56
2022-10-23T04:39:09.611Z,99509.84
2022-10-23T04:41:39.880Z,99512.19
2022-10-23T04:44:09.235Z,99509.72
2022-10-23T04:46:40.620Z,99500.91
2022-10-23T04:49:09.682Z,99497.28
2022-10-23T04:51:54.403Z,99501.38
2022-10-23T04:54:42.380Z,99491.38
2022-10-23T04:57:23.936Z,99492.56
2022-10-23T05:00:19.670Z,99491.50
2022-10-23T05:02:54.687Z,99494.78
2022-10-23T05:05:24.394Z,99486.97
2022-10-23T05:08:17.971Z,99491.66
2022-10-23T05:11:06.779Z,99487.97
2022-10-23T05:13:41.262Z,99483.84
2022-10-23T05:16:11.198Z,99477.44
2022-10-23T05:18:48.989Z,99474.28
2022-10-23T05:21:22.748Z,99477.28
2022-10-23T05:23:54.988Z,99481.25
2022-10-23T05:26:24.751Z,99473.09
2022-10-23T05:28:56.486Z,99472.56
2022-10-23T05:31:26.811Z,99476.94
2022-10-23T05:34:02.091Z,99477.56
2022-10-23T05:36:32.872Z,99470.81
2022-10-23T05:39:04.097Z,99469.50
2022-10-23T05:41:34.866Z,99469.19
2022-10-23T05:44:04.584Z,99473.16
2022-10-23T05:46:52.365Z,99463.94
2022-10-23T05:49:42.199Z,99470.47
2022-10-23T05:52:32.536Z,99468.09
2022-10-23T05:55:35.318Z,99470.31
2022-10-23T05:58:27.577Z,99452.59
2022-10-23T06:01:23.281Z,99454.75
2022-10-23T06:04:06.678Z,99438.44
2022-10-23T06:06:55.906Z,99436.06
2022-10-23T06:09:26.514Z,99436.88
2022-10-23T06:12:02.147Z,99436.84
2022-10-23T06:14:33.531Z,99429.81
2022-10-23T06:17:02.575Z,99425.44
2022-10-23T06:19:31.704Z,99418.75
2022-10-23T06:22:00.774Z,99416.16
2022-10-23T06:24:45.979Z,99412.09
2022-10-23T06:27:19.138Z,99416.97
2022-10-23T06:29:49.068Z,99412.41
2022-10-23T06:32:18.645Z,99408.91
2022-10-23T06:35:00.053Z,99405.69
2022-10-23T06:37:30.302Z,99390.50
2022-10-23T06:40:15.368Z,99387.19
2022-10-23T06:43:30.404Z,99384.97
2022-10-23T06:46:18.684Z,99382.97
2022-10-23T06:49:07.918Z,99378.78
2022-10-23T06:51:49.069Z,99377.59
2022-10-23T06:54:23.138Z,99376.75
2022-10-23T06:57:12.246Z,99375.53
2022-10-23T06:59:47.814Z,99375.41
2022-10-23T07:02:18.924Z,99371.56
2022-10-23T07:04:49.132Z,99370.66
2022-10-23T07:07:22.449Z,99356.56
2022-10-23T07:09:52.920Z,99358.88
2022-10-23T07:12:24.416Z,99352.16
2022-10-23T07:15:13.978Z,99356.50
2022-10-23T07:17:43.364Z,99355.25
2022-10-23T07:20:13.453Z,99353.06
2022-10-23T07:22:43.126Z,99350.28
2022-10-23T07:25:17.406Z,99346.81
2022-10-23T07:27:47.853Z,99344.81
2022-10-23T07:30:19.540Z,99347.53
2022-10-23T07:32:55.583Z,99337.44
2022-10-23T07:35:48.200Z,99344.47
2022-10-23T07:38:30.951Z,99339.84
2022-10-23T07:41:02.662Z,99338.59
2022-10-23T07:46:03.729Z,99336.75
2022-10-23T07:48:38.064Z,99338.72
2022-10-23T07:51:10.901Z,99326.06
2022-10-23T07:53:45.942Z,99322.09
2022-10-23T07:56:35.753Z,99324.59
2022-10-23T07:59:24.258Z,99321.03
2022-10-23T08:01:59.257Z,99319.22
2022-10-23T08:04:34.929Z,99316.97
2022-10-23T08:07:14.724Z,99320.19
2022-10-23T08:09:47.079Z,99317.97
2022-10-23T08:12:16.920Z,99323.16
2022-10-23T08:14:47.314Z,99329.03
2022-10-23T08:17:19.213Z,99324.66
2022-10-23T08:20:04.598Z,99317.75
2022-10-23T08:22:45.354Z,99320.69
2022-10-23T08:25:24.947Z,99324.53
2022-10-23T08:27:55.594Z,99322.25
2022-10-23T08:30:26.048Z,99328.69
2022-10-23T08:32:57.302Z,99323.75
2022-10-23T08:35:27.079Z,99319.91
2022-10-23T08:37:56.360Z,99323.53
2022-10-23T08:40:27.720Z,99323.22
2022-10-23T08:43:14.060Z,99324.97
2022-10-23T08:46:01.297Z,99325.72
2022-10-23T08:49:00.045Z,99314.16
2022-10-23T08:51:53.697Z,99315.63
2022-10-23T08:54:32.234Z,99312.78
2022-10-23T08:57:08.319Z,99304.16
2022-10-23T08:59:45.709Z,99303.09
2022-10-23T09:02:19.949Z,99297.47
2022-10-23T09:04:55.884Z,99294.25
2022-10-23T09:07:40.902Z,99292.38
2022-10-23T09:10:36.157Z,99284.72
2022-10-23T09:13:29.256Z,99285.75
2022-10-23T09:16:07.701Z,99279.66
2022-10-23T09:18:40.082Z,99279.94
2022-10-23T09:21:12.960Z,99274.75
2022-10-23T09:23:42.486Z,99271.66
2022-10-23T09:26:17.017Z,99275.03
2022-10-23T09:28:51.019Z,99273.09
2022-10-23T09:31:21.250Z,99259.91
2022-10-23T09:33:58.297Z,99263.91
2022-10-23T09:36:30.327Z,99265.53
2022-10-23T09:39:01.963Z,99261.72
2022-10-23T09:41:36.712Z,99255.31
2022-10-23T09:44:20.066Z,99249.66
2022-10-23T09:46:53.797Z,99253.50
2022-10-23T09:49:26.067Z,99259.34
2022-10-23T09:52:02.802Z,99252.13
2022-10-23T09:54:35.014Z,99255.13
2022-10-23T09:57:17.060Z,99251.41
2022-10-23T09:59:51.614Z,99254.19
2022-10-23T10:02:28.257Z,99233.75
2022-10-23T10:05:24.799Z,99233.88
2022-10-23T10:08:08.352Z,99221.97
2022-10-23T10:10:42.225Z,99226.59
2022-10-23T10:13:33.646Z,99227.06
2022-10-23T10:16:08.410Z,99224.91
2022-10-23T10:18:43.752Z,99221.25
2022-10-23T10:21:20.300Z,99220.72
2022-10-23T10:23:58.651Z,99225.09
2022-10-23T10:26:36.692Z,99229.75
2022-10-23T10:29:18.094Z,99221.72
2022-10-23T10:31:58.012Z,99221.59
2022-10-23T10:34:31.702Z,99218.59
2022-10-23T10:37:12.206Z,99210.44
2022-10-23T10:39:50.480Z,99205.13
2022-10-23T10:42:40.580Z,99205.03
2022-10-23T10:45:32.369Z,99199.88
2022-10-23T10:48:17.098Z,99193.78
2022-10-23T10:51:18.859Z,99195.13
2022-10-23T10:54:02.362Z,99192.53
2022-10-23T10:56:37.301Z,99186.03
2022-10-23T10:59:13.832Z,99185.28
2022-10-23T11:01:47.795Z,99175.66
2022-10-23T11:04:47.315Z,99169.56
2022-10-23T11:07:23.413Z,99181.59
2022-10-23T11:09:53.964Z,99172.47
2022-10-23T11:12:32.352Z,99162.88
2022-10-23T11:15:02.449Z,99167.56
2022-10-23T11:17:40.428Z,99166.72
2022-10-23T11:20:25.335Z,99161.91
2022-10-23T11:23:03.556Z,99161.31
2022-10-23T11:25:58.046Z,99152.56
2022-10-23T11:28:52.528Z,99143.72
2022-10-23T11:31:31.574Z,99144.06
2022-10-23T11:34:32.268Z,99137.97
2022-10-23T11:37:05.028Z,99135.44
2022-10-23T11:39:40.824Z,99125.53
2022-10-23T11:42:16.742Z,99126.66
2022-10-23T11:44:49.612Z,99129.59
2022-10-23T11:47:38.953Z,99128.53
2022-10-23T11:50:17.829Z,99123.09
2022-10-23T11:53:13.564Z,99123.91
2022-10-23T11:55:59.351Z,99115.84
2022-10-23T11:58:41.128Z,99120.69
2022-10-23T12:01:27.533Z,99118.22
2022-10-23T12:04:07.532Z,99110.75
2022-10-23T12:06:42.099Z,99109.75
2022-10-23T12:09:29.330Z,99102.25
2022-10-23T12:12:29.568Z,99101.69
2022-10-23T12:15:21.838Z,99103.91
2022-10-23T12:17:54.357Z,99106.16
2022-10-23T12:20:46.382Z,99098.91
2022-10-23T12:23:44.389Z,99103.66
2022-10-23T12:26:32.220Z,99097.44
2022-10-23T12:29:12.445Z,99094.41
2022-10-23T12:31:50.607Z,99098.66
2022-10-23T12:34:32.697Z,99100.34
2022-10-23T12:37:30.658Z,99101.06
2022-10-23T12:40:02.170Z,99096.53
2022-10-23T12:42:33.567Z,99099.78
2022-10-23T12:45:07.265Z,99091.34
2022-10-23T12:47:39.719Z,99087.59
2022-10-23T12:50:20.472Z,99090.44
2022-10-23T12:52:54.251Z,99093.44
2022-10-23T12:55:24.138Z,99091.88
2022-10-23T12:57:54.864Z,99088.66
2022-10-23T13:00:26.753Z,99086.31
2022-10-23T13:03:03.120Z,99079.19
2022-10-23T13:05:34.801Z,99071.94
2022-10-23T13:08:08.046Z,99065.69
2022-10-23T13:10:50.543Z,99060.22
2022-10-23T13:13:25.200Z,99059.44
2022-10-23T13:15:55.003Z,99057.25
2022-10-23T13:18:25.377Z,99052.69
2022-10-23T13:23:37.787Z,99051.78
2022-10-23T13:26:22.833Z,99041.28
2022-10-23T13:28:53.080Z,99048.50
2022-10-23T13:31:32.312Z,99041.66
2022-10-23T13:34:21.286Z,99039.06
2022-10-23T13:37:03.776Z,99050.25
2022-10-23T13:39:35.620Z,99039.63
2022-10-23T13:42:14.136Z,99034.38
2022-10-23T13:44:44.379Z,99037.88
2022-10-23T13:47:14.867Z,99039.81
2022-10-23T13:49:45.339Z,99032.50
2022-10-23T13:52:20.563Z,99036.94
2022-10-23T13:54:51.761Z,99036.53
2022-10-23T13:57:22.118Z,99036.78
2022-10-23T13:59:51.887Z,99034.84
2022-10-23T14:02:26.118Z,99029.41
2022-10-23T14:04:57.206Z,99032.75
2022-10-23T14:07:28.492Z,99031.69
2022-10-23T14:09:58.558Z,99030.81
2022-10-23T14:12:28.516Z,99027.72
2022-10-23T14:14:58.488Z,99029.16
2022-10-23T14:17:28.324Z,99022.38
2022-10-23T14:19:59.509Z,99019.28
2022-10-23T14:22:33.413Z,99023.31
2022-10-23T14:25:05.113Z,99022.34
2022-10-23T14:27:36.165Z,99021.31
2022-10-23T14:30:06.943Z,99022.34
2022-10-23T14:32:36.507Z,99013.72
2022-10-23T14:35:07.996Z,99015.72
2022-10-23T14:37:39.587Z,99017.09
2022-10-23T14:40:10.249Z,99011.22
2022-10-23T14:42:40.712Z,99014.75
2022-10-23T14:45:11.914Z,99007.22
2022-10-23T14:47:45.053Z,99009.13
2022-10-23T14:50:16.848Z,99010.44
2022-10-23T14:52:47.986Z,99001.34
2022-10-23T14:55:18.159Z,99008.00
2022-10-23T14:57:47.953Z,99003.97
2022-10-23T15:00:17.926Z,99000.09
2022-10-23T15:02:47.919Z,98997.75
2022-10-23T15:05:18.383Z,98993.06
2022-10-23T15:07:49.317Z,98992.31
2022-10-23T15:10:24.912Z,98996.72
2022-10-23T15:12:56.771Z,98987.47
2022-10-23T15:15:27.412Z,98981.66
2022-10-23T15:17:57.085Z,98981.94
2022-10-23T15:20:26.923Z,98979.03
2022-10-23T15:22:58.836Z,98982.22
2022-10-23T15:25:29.323Z,98973.28
2022-10-23T15:27:59.383Z,98971.69
2022-10-23T15:30:29.000Z,98970.34
2022-10-23T15:32:58.960Z,98971.91
2022-10-23T15:38:05.258Z,98977.44
2022-10-23T15:40:37.100Z,98970.84
2022-10-23T15:43:09.489Z,98972.47
2022-10-23T15:45:41.264Z,98971.25
2022-10-23T15:48:11.376Z,98968.50
2022-10-23T15:50:41.305Z,98970.69
2022-10-23T15:53:13.096Z,98967.06
2022-10-23T15:55:42.541Z,98962.69
2022-10-23T15:58:12.648Z,98961.91
2022-10-23T16:00:46.100Z,98970.06
2022-10-23T16:03:15.884Z,98969.31
2022-10-23T16:05:45.823Z,98959.81
2022-10-23T16:08:17.507Z,98967.31
2022-10-23T16:10:55.567Z,98968.59
2022-10-23T16:13:29.101Z,98964.94
2022-10-23T16:15:58.985Z,98957.91
2022-10-23T16:18:29.054Z,98964.09
2022-10-23T16:20:59.129Z,98966.47
2022-10-23T16:23:31.360Z,98954.19
2022-10-23T16:26:04.963Z,98962.09
2022-10-23T16:29:05.784Z,98961.31
2022-10-23T16:31:37.169Z,98948.75
2022-10-23T16:34:10.076Z,98952.63
2022-10-23T16:36:42.557Z,98947.22
2022-10-23T16:39:18.601Z,98940.88
2022-10-23T16:42:09.002Z,98938.13
2022-10-23T16:44:52.650Z,98936.72
2022-10-23T16:47:22.651Z,98937.78
2022-10-23T16:49:52.552Z,98933.84
2022-10-23T16:52:22.047Z,98930.13
2022-10-23T16:54:55.269Z,98930.50
2022-10-23T16:57:27.500Z,98937.84
2022-10-23T17:00:00.955Z,98930.50
2022-10-23T17:02:31.012Z,98930.25
2022-10-23T17:05:00.969Z,98927.88
2022-10-23T17:07:31.991Z,98920.91
2022-10-23T17:10:03.546Z,98919.53
2022-10-23T17:12:32.932Z,98916.97
2022-10-23T17:15:02.685Z,98916.97
2022-10-23T17:17:32.984Z,98903.88
2022-10-23T17:20:02.858Z,98907.53
2022-10-23T17:22:34.863Z,98904.53
2022-10-23T17:25:07.766Z,98902.84
2022-10-23T17:27:38.313Z,98899.19
2022-10-23T17:30:12.679Z,98898.16
2022-10-23T17:32:44.578Z,98892.88
2022-10-23T17:35:14.415Z,98893.00
2022-10-23T17:37:44.008Z,98888.88
2022-10-23T17:40:19.451Z,98887.41
2022-10-23T17:42:51.852Z,98891.94
2022-10-23T17:45:21.680Z,98886.75
2022-10-23T17:47:52.335Z,98880.69
2022-10-23T17:50:23.986Z,98875.88
2022-10-23T17:52:55.082Z,98872.81
2022-10-23T17:55:26.607Z,98868.91
2022-10-23T17:57:56.178Z,98863.88
2022-10-23T18:00:26.233Z,98866.06
2022-10-23T18:02:56.257Z,98862.19
2022-10-23T18:05:25.855Z,98856.22
2022-10-23T18:08:20.373Z,98854.56
2022-10-23T18:10:52.232Z,98846.31
2022-10-23T18:13:22.974Z,98850.22
2022-10-23T18:15:52.874Z,98838.41
2022-10-23T18:18:22.015Z,98846.66
2022-10-23T18:20:51.166Z,98842.06
2022-10-23T18:23:20.496Z,98842.44
2022-10-23T18:25:51.830Z,98835.69
2022-10-23T18:28:21.146Z,98837.34
2022-10-23T18:30:53.423Z,98847.84
2022-10-23T18:33:26.786Z,98833.22
2022-10-23T18:35:57.033Z,98829.97
2022-10-23T18:38:26.524Z,98828.66
2022-10-23T18:40:58.423Z,98827.91
2022-10-23T18:43:43.359Z,98827.00
2022-10-23T18:46:14.211Z,98829.22
2022-10-23T18:48:46.567Z,98817.94
2022-10-23T18:51:21.817Z,98817.16
2022-10-23T18:53:52.859Z,98815.88
2022-10-23T18:56:29.011Z,98818.97
2022-10-23T18:59:03.190Z,98810.31
2022-10-23T19:01:32.833Z,98815.22
2022-10-23T19:04:03.335Z,98808.63
2022-10-23T19:06:37.415Z,98807.81
2022-10-23T19:09:08.803Z,98809.91
2022-10-23T19:11:47.178Z,98805.78
2022-10-23T19:14:19.239Z,98802.91
2022-10-23T19:16:58.785Z,98817.41
2022-10-23T19:19:31.990Z,98803.31
2022-10-23T19:22:03.664Z,98798.13
2022-10-23T19:24:40.269Z,98801.63
2022-10-23T19:27:14.268Z,98793.34
2022-10-23T19:29:46.415Z,98802.91
2022-10-23T19:32:16.053Z,98799.31
2022-10-23T19:34:45.937Z,98788.69
2022-10-23T19:37:21.244Z,98795.66
2022-10-23T19:39:50.359Z,98794.75
2022-10-23T19:42:21.517Z,98787.88
2022-10-23T19:44:51.442Z,98794.91
2022-10-23T19:47:20.952Z,98783.75
2022-10-23T19:49:51.902Z,98787.41
2022-10-23T19:52:22.291Z,98788.69
2022-10-23T19:54:51.874Z,98785.59
2022-10-23T19:57:22.847Z,98781.56
2022-10-23T19:59:56.934Z,98777.28
2022-10-23T20:02:27.682Z,98771.47
2022-10-23T20:05:02.072Z,98775.50
2022-10-23T20:07:35.136Z,98777.28
2022-10-23T20:10:06.030Z,98774.44
2022-10-23T20:12:47.467Z,98764.56
2022-10-23T20:15:26.161Z,98769.25
2022-10-23T20:17:57.645Z,98770.03
2022-10-23T20:20:29.943Z,98767.03
2022-10-23T20:22:59.175Z,98760.66
2022-10-23T20:25:28.981Z,98757.41
2022-10-23T20:28:01.570Z,98754.84
2022-10-23T20:30:30.775Z,98758.88
2022-10-23T20:33:03.697Z,98755.03
2022-10-23T20:35:42.085Z,98750.25
2022-10-23T20:38:12.028Z,98749.97
2022-10-23T20:40:42.379Z,98741.88
2022-10-23T20:43:13.483Z,98745.00
2022-10-23T20:45:44.178Z,98735.53
2022-10-23T20:48:13.507Z,98737.88
2022-10-23T20:50:42.797Z,98744.75
2022-10-23T20:53:13.264Z,98747.94
2022-10-23T20:55:44.345Z,98741.66
2022-10-23T20:58:15.681Z,98735.66
2022-10-23T21:00:45.178Z,98728.28
2022-10-23T21:03:15.249Z,98733.94
2022-10-23T21:05:45.110Z,98728.94
2022-10-23T21:08:14.471Z,98726.31
2022-10-23T21:10:47.621Z,98733.66
2022-10-23T21:13:21.544Z,98719.19
2022-10-23T21:15:50.979Z,98718.16
2022-10-23T21:18:27.448Z,98721.03
2022-10-23T21:21:16.337Z,98712.78
2022-10-23T21:23:59.648Z,98705.13
2022-10-23T21:26:30.257Z,98705.28
2022-10-23T21:29:17.347Z,98706.28
2022-10-23T21:31:53.411Z,98714.06
2022-10-23T21:34:23.828Z,98707.59
2022-10-23T21:37:13.491Z,98705.47
2022-10-23T21:39:44.210Z,98718.44
2022-10-23T21:42:15.368Z,98720.72
2022-10-23T21:44:46.974Z,98720.31
2022-10-23T21:47:17.992Z,98719.41
2022-10-23T21:49:50.088Z,98712.25
2022-10-23T21:52:19.962Z,98724.44
2022-10-23T21:54:53.305Z,98717.69
2022-10-23T21:57:25.249Z,98725.25
2022-10-23T21:59:57.092Z,98724.56
2022-10-23T22:02:27.403Z,98727.19
2022-10-23T22:04:56.691Z,98724.47
2022-10-23T22:07:26.343Z,98721.88
2022-10-23T22:09:55.438Z,98718.50
2022-10-23T22:12:24.764Z,98720.59
2022-10-23T22:14:53.944Z,98722.91
2022-10-23T22:17:24.462Z,98727.19
2022-10-23T22:19:53.558Z,98724.50
2022-10-23T22:22:24.907Z,98726.81
2022-10-23T22:24:54.351Z,98723.84
2022-10-23T22:27:23.411Z,98720.88
2022-10-23T22:29:52.729Z,98709.47
2022-10-23T22:32:23.496Z,98719.94
2022-10-23T22:34:53.599Z,98714.66
2022-10-23T22:37:23.410Z,98731.75
2022-10-23T22:39:53.338Z,98718.28
2022-10-23T22:42:22.524Z,98724.00
2022-10-23T22:44:51.511Z,98730.72
2022-10-23T22:47:21.953Z,98729.91
2022-10-23T22:49:53.304Z,98735.25
2022-10-23T22:52:22.611Z,98731.75
2022-10-23T22:54:55.894Z,98725.66
2022-10-23T22:59:59.137Z,98730.97
2022-10-23T23:02:28.142Z,98730.19
2022-10-23T23:04:58.486Z,98738.97
2022-10-23T23:07:27.645Z,98728.34
2022-10-23T23:09:57.872Z,98729.94
2022-10-23T23:12:27.198Z,98722.69
2022-10-23T23:14:56.260Z,98729.66
2022-10-23T23:17:25.288Z,98724.47
2022-10-23T23:19:55.454Z,98722.69
2022-10-23T23:22:37.065Z,98716.47
2022-10-23T23:25:06.732Z,98720.88
2022-10-23T23:27:35.789Z,98723.19
2022-10-23T23:30:06.510Z,98730.69
2022-10-23T23:32:40.210Z,98719.28
2022-10-23T23:35:10.077Z,98729.63
2022-10-23T23:37:40.723Z,98725.41
2022-10-23T23:40:11.208Z,98741.03
2022-10-23T23:42:40.867Z,98730.94
2022-10-23T23:45:14.805Z,98728.06
2022-10-23T23:47:44.401Z,98735.72
2022-10-23T23:50:14.127Z,98741.50
2022-10-23T23:52:44.531Z,98742.81
2022-10-23T23:55:13.913Z,98730.50
2022-10-23T23:57:43.214Z,98733.50
